sensor_id;sensor_type;location;lat;lon;timestamp;temperature;humidity
51867;DHT22;52862;52.504;13.480;2022-10-17T00:00:35;14.10;99.90
51867;DHT22;52862;52.504;13.480;2022-10-17T00:03:02;14.10;99.90
51867;DHT22;52862;52.504;13.480;2022-10-17T00:05:29;14.10;99.90
51867;DHT22;52862;52.504;13.480;2022-10-17T00:07:56;14.10;99.90
51867;DHT22;52862;52.504;13.480;2022-10-17T00:10:23;14.10;99.90
51867;DHT22;52862;52.504;13.480;2022-10-17T00:12:51;14.00;99.90
51867;DHT22;52862;52.504;13.480;2022-10-17T00:15:21;14.00;99.90
51867;DHT22;52862;52.504;13.480;2022-10-17T00:17:48;14.00;99.90
51867;DHT22;52862;52.504;13.480;2022-10-17T00:20:15;13.70;99.90
51867;DHT22;52862;52.504;13.480;2022-10-17T00:22:42;14.10;99.90
51867;DHT22;52862;52.504;13.480;2022-10-17T00:25:10;14.00;99.90
51867;DHT22;52862;52.504;13.480;2022-10-17T00:27:38;14.20;99.90
51867;DHT22;52862;52.504;13.480;2022-10-17T00:30:08;14.20;99.90
51867;DHT22;52862;52.504;13.480;2022-10-17T00:32:35;14.20;99.90
51867;DHT22;52862;52.504;13.480;2022-10-17T00:35:03;14.10;99.90
51867;DHT22;52862;52.504;13.480;2022-10-17T00:37:30;14.10;99.90
51867;DHT22;52862;52.504;13.480;2022-10-17T00:39:57;13.90;99.90
51867;DHT22;52862;52.504;13.480;2022-10-17T00:42:24;14.00;99.90
51867;DHT22;52862;52.504;13.480;2022-10-17T00:45:16;14.60;99.90
51867;DHT22;52862;52.504;13.480;2022-10-17T00:47:45;14.30;99.90
51867;DHT22;52862;52.504;13.480;2022-10-17T00:50:14;14.20;99.90
51867;DHT22;52862;52.504;13.480;2022-10-17T00:52:41;13.00;99.90
51867;DHT22;52862;52.504;13.480;2022-10-17T00:55:13;13.40;99.90
51867;DHT22;52862;52.504;13.480;2022-10-17T00:57:41;14.20;99.90
51867;DHT22;52862;52.504;13.480;2022-10-17T01:00:09;13.90;99.90
51867;DHT22;52862;52.504;13.480;2022-10-17T01:02:38;13.80;99.90
51867;DHT22;52862;52.504;13.480;2022-10-17T01:05:05;13.90;99.90
51867;DHT22;52862;52.504;13.480;2022-10-17T01:07:33;14.00;99.90
51867;DHT22;52862;52.504;13.480;2022-10-17T01:10:04;14.20;99.90
51867;DHT22;52862;52.504;13.480;2022-10-17T01:12:37;14.40;99.90
51867;DHT22;52862;52.504;13.480;2022-10-17T01:15:11;14.10;99.90
51867;DHT22;52862;52.504;13.480;2022-10-17T01:17:45;14.30;99.90
51867;DHT22;52862;52.504;13.480;2022-10-17T01:20:58;14.60;99.90
51867;DHT22;52862;52.504;13.480;2022-10-17T01:23:44;14.10;99.90
51867;DHT22;52862;52.504;13.480;2022-10-17T01:26:20;14.30;99.90
51867;DHT22;52862;52.504;13.480;2022-10-17T01:29:14;13.80;99.90
51867;DHT22;52862;52.504;13.480;2022-10-17T01:31:49;13.90;99.90
51867;DHT22;52862;52.504;13.480;2022-10-17T01:34:21;13.80;99.90
51867;DHT22;52862;52.504;13.480;2022-10-17T01:36:53;13.80;99.90
51867;DHT22;52862;52.504;13.480;2022-10-17T01:39:26;14.00;99.90
51867;DHT22;52862;52.504;13.480;2022-10-17T01:42:00;13.90;99.90
51867;DHT22;52862;52.504;13.480;2022-10-17T01:44:33;13.90;99.90
51867;DHT22;52862;52.504;13.480;2022-10-17T01:47:06;12.80;99.90
51867;DHT22;52862;52.504;13.480;2022-10-17T01:49:34;13.70;99.90
51867;DHT22;52862;52.504;13.480;2022-10-17T01:52:07;13.80;99.90
51867;DHT22;52862;52.504;13.480;2022-10-17T01:54:38;13.50;99.90
51867;DHT22;52862;52.504;13.480;2022-10-17T01:57:08;13.80;99.90
51867;DHT22;52862;52.504;13.480;2022-10-17T01:59:39;13.60;99.90
51867;DHT22;52862;52.504;13.480;2022-10-17T02:02:08;14.30;99.90
51867;DHT22;52862;52.504;13.480;2022-10-17T02:04:35;13.70;99.90
51867;DHT22;52862;52.504;13.480;2022-10-17T02:07:06;13.80;99.90
51867;DHT22;52862;52.504;13.480;2022-10-17T02:09:34;13.80;99.90
51867;DHT22;52862;52.504;13.480;2022-10-17T02:12:12;13.40;99.90
51867;DHT22;52862;52.504;13.480;2022-10-17T02:14:49;13.50;99.90
51867;DHT22;52862;52.504;13.480;2022-10-17T02:17:29;13.60;99.90
51867;DHT22;52862;52.504;13.480;2022-10-17T02:20:08;13.50;99.90
51867;DHT22;52862;52.504;13.480;2022-10-17T02:22:39;13.50;99.90
51867;DHT22;52862;52.504;13.480;2022-10-17T02:25:12;13.50;99.90
51867;DHT22;52862;52.504;13.480;2022-10-17T02:27:43;13.20;99.90
51867;DHT22;52862;52.504;13.480;2022-10-17T02:30:13;13.30;99.90
51867;DHT22;52862;52.504;13.480;2022-10-17T02:32:46;13.50;99.90
51867;DHT22;52862;52.504;13.480;2022-10-17T02:35:17;13.30;99.90
51867;DHT22;52862;52.504;13.480;2022-10-17T02:37:46;13.70;99.90
51867;DHT22;52862;52.504;13.480;2022-10-17T02:40:15;13.80;99.90
51867;DHT22;52862;52.504;13.480;2022-10-17T02:42:44;13.70;99.90
51867;DHT22;52862;52.504;13.480;2022-10-17T02:45:12;13.60;99.90
51867;DHT22;52862;52.504;13.480;2022-10-17T02:47:47;13.90;99.90
51867;DHT22;52862;52.504;13.480;2022-10-17T02:50:15;13.60;99.90
51867;DHT22;52862;52.504;13.480;2022-10-17T02:52:46;13.70;99.90
51867;DHT22;52862;52.504;13.480;2022-10-17T02:55:26;13.60;99.90
51867;DHT22;52862;52.504;13.480;2022-10-17T02:57:58;13.90;99.90
51867;DHT22;52862;52.504;13.480;2022-10-17T03:00:27;13.30;99.90
51867;DHT22;52862;52.504;13.480;2022-10-17T03:02:55;13.60;99.90
51867;DHT22;52862;52.504;13.480;2022-10-17T03:05:23;13.60;99.90
51867;DHT22;52862;52.504;13.480;2022-10-17T03:07:51;13.70;99.90
51867;DHT22;52862;52.504;13.480;2022-10-17T03:10:18;13.60;99.90
51867;DHT22;52862;52.504;13.480;2022-10-17T03:12:45;13.80;99.90
51867;DHT22;52862;52.504;13.480;2022-10-17T03:15:12;13.50;99.90
51867;DHT22;52862;52.504;13.480;2022-10-17T03:17:39;13.60;99.90
51867;DHT22;52862;52.504;13.480;2022-10-17T03:20:07;13.50;99.90
51867;DHT22;52862;52.504;13.480;2022-10-17T03:22:33;13.60;99.90
51867;DHT22;52862;52.504;13.480;2022-10-17T03:25:00;13.50;99.90
51867;DHT22;52862;52.504;13.480;2022-10-17T03:27:27;13.50;99.90
51867;DHT22;52862;52.504;13.480;2022-10-17T03:29:54;13.60;99.90
51867;DHT22;52862;52.504;13.480;2022-10-17T03:32:20;13.60;99.90
51867;DHT22;52862;52.504;13.480;2022-10-17T03:34:47;13.60;99.90
51867;DHT22;52862;52.504;13.480;2022-10-17T03:37:14;13.60;99.90
51867;DHT22;52862;52.504;13.480;2022-10-17T03:39:41;13.60;99.90
51867;DHT22;52862;52.504;13.480;2022-10-17T03:42:07;13.30;99.90
51867;DHT22;52862;52.504;13.480;2022-10-17T03:44:34;13.80;99.90
51867;DHT22;52862;52.504;13.480;2022-10-17T03:47:01;13.70;99.90
51867;DHT22;52862;52.504;13.480;2022-10-17T03:49:27;13.50;99.90
51867;DHT22;52862;52.504;13.480;2022-10-17T03:51:54;13.60;99.90
51867;DHT22;52862;52.504;13.480;2022-10-17T03:54:21;13.50;99.90
51867;DHT22;52862;52.504;13.480;2022-10-17T03:56:48;13.60;99.90
51867;DHT22;52862;52.504;13.480;2022-10-17T03:59:15;13.50;99.90
51867;DHT22;52862;52.504;13.480;2022-10-17T04:01:42;13.50;99.90
51867;DHT22;52862;52.504;13.480;2022-10-17T04:04:09;13.60;99.90
51867;DHT22;52862;52.504;13.480;2022-10-17T04:06:36;13.40;99.90
51867;DHT22;52862;52.504;13.480;2022-10-17T04:09:04;13.40;99.90
51867;DHT22;52862;52.504;13.480;2022-10-17T04:11:31;13.40;99.90
51867;DHT22;52862;52.504;13.480;2022-10-17T04:13:58;13.10;99.90
51867;DHT22;52862;52.504;13.480;2022-10-17T04:16:25;13.40;99.90
51867;DHT22;52862;52.504;13.480;2022-10-17T04:18:53;13.50;99.90
51867;DHT22;52862;52.504;13.480;2022-10-17T04:21:21;13.30;99.90
51867;DHT22;52862;52.504;13.480;2022-10-17T04:23:51;13.10;99.90
51867;DHT22;52862;52.504;13.480;2022-10-17T04:26:17;13.40;99.90
51867;DHT22;52862;52.504;13.480;2022-10-17T04:28:45;13.40;99.90
51867;DHT22;52862;52.504;13.480;2022-10-17T04:31:13;13.40;99.90
51867;DHT22;52862;52.504;13.480;2022-10-17T04:33:40;13.40;99.90
51867;DHT22;52862;52.504;13.480;2022-10-17T04:36:10;13.30;99.90
51867;DHT22;52862;52.504;13.480;2022-10-17T04:38:37;13.40;99.90
51867;DHT22;52862;52.504;13.480;2022-10-17T04:41:06;13.10;99.90
51867;DHT22;52862;52.504;13.480;2022-10-17T04:43:35;13.30;99.90
51867;DHT22;52862;52.504;13.480;2022-10-17T04:46:05;13.20;99.90
51867;DHT22;52862;52.504;13.480;2022-10-17T04:48:32;13.40;99.90
51867;DHT22;52862;52.504;13.480;2022-10-17T04:51:00;13.30;99.90
51867;DHT22;52862;52.504;13.480;2022-10-17T04:53:29;13.30;99.90
51867;DHT22;52862;52.504;13.480;2022-10-17T04:55:55;13.40;99.90
51867;DHT22;52862;52.504;13.480;2022-10-17T04:58:22;13.20;99.90
51867;DHT22;52862;52.504;13.480;2022-10-17T05:00:49;12.60;99.90
51867;DHT22;52862;52.504;13.480;2022-10-17T05:03:16;11.00;99.90
51867;DHT22;52862;52.504;13.480;2022-10-17T05:05:43;13.40;99.90
51867;DHT22;52862;52.504;13.480;2022-10-17T05:08:10;13.30;99.90
51867;DHT22;52862;52.504;13.480;2022-10-17T05:10:38;13.10;99.90
51867;DHT22;52862;52.504;13.480;2022-10-17T05:13:05;12.90;99.90
51867;DHT22;52862;52.504;13.480;2022-10-17T05:15:31;13.30;99.90
51867;DHT22;52862;52.504;13.480;2022-10-17T05:17:58;13.10;99.90
51867;DHT22;52862;52.504;13.480;2022-10-17T05:20:26;13.30;99.90
51867;DHT22;52862;52.504;13.480;2022-10-17T05:22:53;13.40;99.90
51867;DHT22;52862;52.504;13.480;2022-10-17T05:25:20;13.20;99.90
51867;DHT22;52862;52.504;13.480;2022-10-17T05:27:47;13.40;99.90
51867;DHT22;52862;52.504;13.480;2022-10-17T05:30:14;13.20;99.90
51867;DHT22;52862;52.504;13.480;2022-10-17T05:32:42;13.10;99.90
51867;DHT22;52862;52.504;13.480;2022-10-17T05:35:10;12.80;99.90
51867;DHT22;52862;52.504;13.480;2022-10-17T05:37:37;13.50;99.90
51867;DHT22;52862;52.504;13.480;2022-10-17T05:40:04;13.10;99.90
51867;DHT22;52862;52.504;13.480;2022-10-17T05:42:31;13.40;99.90
51867;DHT22;52862;52.504;13.480;2022-10-17T05:44:58;13.30;99.90
51867;DHT22;52862;52.504;13.480;2022-10-17T05:47:25;13.40;99.90
51867;DHT22;52862;52.504;13.480;2022-10-17T05:49:55;13.10;99.90
51867;DHT22;52862;52.504;13.480;2022-10-17T05:52:22;13.60;99.90
51867;DHT22;52862;52.504;13.480;2022-10-17T05:54:49;13.40;99.90
51867;DHT22;52862;52.504;13.480;2022-10-17T05:57:16;13.20;99.90
51867;DHT22;52862;52.504;13.480;2022-10-17T05:59:42;13.70;99.90
51867;DHT22;52862;52.504;13.480;2022-10-17T06:02:12;13.60;99.90
51867;DHT22;52862;52.504;13.480;2022-10-17T06:04:39;13.60;99.90
51867;DHT22;52862;52.504;13.480;2022-10-17T06:07:11;13.70;99.90
51867;DHT22;52862;52.504;13.480;2022-10-17T06:09:38;13.70;99.90
51867;DHT22;52862;52.504;13.480;2022-10-17T06:12:06;13.60;99.90
51867;DHT22;52862;52.504;13.480;2022-10-17T06:14:32;13.70;99.90
51867;DHT22;52862;52.504;13.480;2022-10-17T06:16:59;13.30;99.90
51867;DHT22;52862;52.504;13.480;2022-10-17T06:19:26;13.60;99.90
51867;DHT22;52862;52.504;13.480;2022-10-17T06:21:53;13.90;99.90
51867;DHT22;52862;52.504;13.480;2022-10-17T06:24:20;13.90;99.90
51867;DHT22;52862;52.504;13.480;2022-10-17T06:26:46;14.10;99.90
51867;DHT22;52862;52.504;13.480;2022-10-17T06:29:15;13.40;99.90
51867;DHT22;52862;52.504;13.480;2022-10-17T06:31:42;14.20;99.90
51867;DHT22;52862;52.504;13.480;2022-10-17T06:34:08;14.00;99.90
51867;DHT22;52862;52.504;13.480;2022-10-17T06:36:35;14.10;99.90
51867;DHT22;52862;52.504;13.480;2022-10-17T06:39:02;14.30;99.90
51867;DHT22;52862;52.504;13.480;2022-10-17T06:41:28;14.40;99.90
51867;DHT22;52862;52.504;13.480;2022-10-17T06:43:55;14.30;99.90
51867;DHT22;52862;52.504;13.480;2022-10-17T06:46:22;14.50;99.90
51867;DHT22;52862;52.504;13.480;2022-10-17T06:48:51;14.50;99.90
51867;DHT22;52862;52.504;13.480;2022-10-17T06:51:18;14.50;99.90
51867;DHT22;52862;52.504;13.480;2022-10-17T06:53:44;14.50;99.90
51867;DHT22;52862;52.504;13.480;2022-10-17T06:56:12;14.50;99.90
51867;DHT22;52862;52.504;13.480;2022-10-17T06:58:39;14.70;99.90
51867;DHT22;52862;52.504;13.480;2022-10-17T07:01:07;14.80;99.90
51867;DHT22;52862;52.504;13.480;2022-10-17T07:03:40;14.70;99.90
51867;DHT22;52862;52.504;13.480;2022-10-17T07:06:08;14.70;99.90
51867;DHT22;52862;52.504;13.480;2022-10-17T07:08:41;15.00;99.90
51867;DHT22;52862;52.504;13.480;2022-10-17T07:11:09;15.00;99.90
51867;DHT22;52862;52.504;13.480;2022-10-17T07:13:36;15.00;99.90
51867;DHT22;52862;52.504;13.480;2022-10-17T07:16:05;15.10;99.90
51867;DHT22;52862;52.504;13.480;2022-10-17T07:18:32;15.20;99.90
51867;DHT22;52862;52.504;13.480;2022-10-17T07:21:00;15.20;99.90
51867;DHT22;52862;52.504;13.480;2022-10-17T07:23:26;15.30;99.90
51867;DHT22;52862;52.504;13.480;2022-10-17T07:25:58;15.40;99.90
51867;DHT22;52862;52.504;13.480;2022-10-17T07:28:25;15.30;99.90
51867;DHT22;52862;52.504;13.480;2022-10-17T07:30:51;15.50;99.90
51867;DHT22;52862;52.504;13.480;2022-10-17T07:33:20;15.50;99.90
51867;DHT22;52862;52.504;13.480;2022-10-17T07:35:50;15.60;99.90
51867;DHT22;52862;52.504;13.480;2022-10-17T07:38:18;15.60;99.90
51867;DHT22;52862;52.504;13.480;2022-10-17T07:40:45;15.20;99.90
51867;DHT22;52862;52.504;13.480;2022-10-17T07:43:18;16.00;99.90
51867;DHT22;52862;52.504;13.480;2022-10-17T07:45:45;15.90;99.90
51867;DHT22;52862;52.504;13.480;2022-10-17T07:48:11;15.90;99.90
51867;DHT22;52862;52.504;13.480;2022-10-17T07:50:38;16.10;99.90
51867;DHT22;52862;52.504;13.480;2022-10-17T07:53:05;16.20;99.90
51867;DHT22;52862;52.504;13.480;2022-10-17T07:55:32;16.30;99.90
51867;DHT22;52862;52.504;13.480;2022-10-17T07:57:59;16.60;99.90
51867;DHT22;52862;52.504;13.480;2022-10-17T08:00:26;16.50;99.90
51867;DHT22;52862;52.504;13.480;2022-10-17T08:02:52;16.80;99.90
51867;DHT22;52862;52.504;13.480;2022-10-17T08:05:19;16.70;99.90
51867;DHT22;52862;52.504;13.480;2022-10-17T08:07:46;16.80;99.90
51867;DHT22;52862;52.504;13.480;2022-10-17T08:10:13;17.00;99.90
51867;DHT22;52862;52.504;13.480;2022-10-17T08:12:41;16.80;99.90
51867;DHT22;52862;52.504;13.480;2022-10-17T08:15:09;17.20;99.90
51867;DHT22;52862;52.504;13.480;2022-10-17T08:17:37;17.40;99.90
51867;DHT22;52862;52.504;13.480;2022-10-17T08:20:06;17.50;99.90
51867;DHT22;52862;52.504;13.480;2022-10-17T08:22:33;17.80;99.90
51867;DHT22;52862;52.504;13.480;2022-10-17T08:25:00;17.70;99.90
51867;DHT22;52862;52.504;13.480;2022-10-17T08:27:26;17.90;99.90
51867;DHT22;52862;52.504;13.480;2022-10-17T08:29:54;17.90;99.90
51867;DHT22;52862;52.504;13.480;2022-10-17T08:32:23;18.10;99.90
51867;DHT22;52862;52.504;13.480;2022-10-17T08:34:51;18.10;99.90
51867;DHT22;52862;52.504;13.480;2022-10-17T08:37:18;18.10;99.90
51867;DHT22;52862;52.504;13.480;2022-10-17T08:39:45;18.10;99.90
51867;DHT22;52862;52.504;13.480;2022-10-17T08:42:33;18.00;99.90
51867;DHT22;52862;52.504;13.480;2022-10-17T08:45:11;18.20;99.90
51867;DHT22;52862;52.504;13.480;2022-10-17T08:47:43;18.40;99.90
51867;DHT22;52862;52.504;13.480;2022-10-17T08:50:14;18.60;99.90
51867;DHT22;52862;52.504;13.480;2022-10-17T08:52:47;18.60;99.90
51867;DHT22;52862;52.504;13.480;2022-10-17T08:55:15;18.70;99.90
51867;DHT22;52862;52.504;13.480;2022-10-17T08:57:43;18.80;99.90
51867;DHT22;52862;52.504;13.480;2022-10-17T09:00:16;18.90;99.90
51867;DHT22;52862;52.504;13.480;2022-10-17T09:02:53;19.10;99.90
51867;DHT22;52862;52.504;13.480;2022-10-17T09:05:45;19.40;99.90
51867;DHT22;52862;52.504;13.480;2022-10-17T09:08:23;19.20;99.90
51867;DHT22;52862;52.504;13.480;2022-10-17T09:10:57;19.60;99.90
51867;DHT22;52862;52.504;13.480;2022-10-17T09:13:41;19.60;99.90
51867;DHT22;52862;52.504;13.480;2022-10-17T09:16:31;19.70;99.90
51867;DHT22;52862;52.504;13.480;2022-10-17T09:19:06;19.90;99.90
51867;DHT22;52862;52.504;13.480;2022-10-17T09:21:41;20.00;99.90
51867;DHT22;52862;52.504;13.480;2022-10-17T09:24:12;20.10;99.90
51867;DHT22;52862;52.504;13.480;2022-10-17T09:26:44;20.30;99.90
51867;DHT22;52862;52.504;13.480;2022-10-17T09:29:17;20.20;99.90
51867;DHT22;52862;52.504;13.480;2022-10-17T09:31:51;20.00;99.90
51867;DHT22;52862;52.504;13.480;2022-10-17T09:34:28;20.50;99.90
51867;DHT22;52862;52.504;13.480;2022-10-17T09:36:57;20.60;99.90
51867;DHT22;52862;52.504;13.480;2022-10-17T09:39:24;20.70;99.90
51867;DHT22;52862;52.504;13.480;2022-10-17T09:41:55;20.70;99.90
51867;DHT22;52862;52.504;13.480;2022-10-17T09:44:24;20.80;99.90
51867;DHT22;52862;52.504;13.480;2022-10-17T09:47:14;20.80;99.90
51867;DHT22;52862;52.504;13.480;2022-10-17T09:49:44;20.80;99.90
51867;DHT22;52862;52.504;13.480;2022-10-17T09:52:15;20.90;99.90
51867;DHT22;52862;52.504;13.480;2022-10-17T09:54:45;20.90;99.90
51867;DHT22;52862;52.504;13.480;2022-10-17T09:57:14;21.00;99.90
51867;DHT22;52862;52.504;13.480;2022-10-17T09:59:43;21.20;99.90
51867;DHT22;52862;52.504;13.480;2022-10-17T10:02:17;21.10;99.90
51867;DHT22;52862;52.504;13.480;2022-10-17T10:04:52;21.20;99.90
51867;DHT22;52862;52.504;13.480;2022-10-17T10:07:37;21.30;99.90
51867;DHT22;52862;52.504;13.480;2022-10-17T10:10:07;21.60;99.90
51867;DHT22;52862;52.504;13.480;2022-10-17T10:12:36;21.70;99.90
51867;DHT22;52862;52.504;13.480;2022-10-17T10:15:30;21.90;99.90
51867;DHT22;52862;52.504;13.480;2022-10-17T10:17:58;22.00;99.90
51867;DHT22;52862;52.504;13.480;2022-10-17T10:20:29;22.10;99.90
51867;DHT22;52862;52.504;13.480;2022-10-17T10:23:14;22.20;99.90
51867;DHT22;52862;52.504;13.480;2022-10-17T10:25:52;22.30;99.90
51867;DHT22;52862;52.504;13.480;2022-10-17T10:28:22;22.40;99.90
51867;DHT22;52862;52.504;13.480;2022-10-17T10:30:54;22.30;99.90
51867;DHT22;52862;52.504;13.480;2022-10-17T10:33:26;22.30;99.90
51867;DHT22;52862;52.504;13.480;2022-10-17T10:35:56;22.20;99.90
51867;DHT22;52862;52.504;13.480;2022-10-17T10:38:29;22.20;99.90
51867;DHT22;52862;52.504;13.480;2022-10-17T10:41:02;22.20;99.90
51867;DHT22;52862;52.504;13.480;2022-10-17T10:43:33;22.20;99.90
51867;DHT22;52862;52.504;13.480;2022-10-17T10:46:04;22.30;99.90
51867;DHT22;52862;52.504;13.480;2022-10-17T10:48:35;22.30;99.90
51867;DHT22;52862;52.504;13.480;2022-10-17T10:51:07;22.40;99.90
51867;DHT22;52862;52.504;13.480;2022-10-17T10:53:43;22.60;99.90
51867;DHT22;52862;52.504;13.480;2022-10-17T10:56:17;22.70;99.90
51867;DHT22;52862;52.504;13.480;2022-10-17T10:58:52;22.80;99.90
51867;DHT22;52862;52.504;13.480;2022-10-17T11:01:25;22.80;99.90
51867;DHT22;52862;52.504;13.480;2022-10-17T11:04:03;22.80;99.90
51867;DHT22;52862;52.504;13.480;2022-10-17T11:06:35;22.80;99.90
51867;DHT22;52862;52.504;13.480;2022-10-17T11:09:15;22.90;99.90
51867;DHT22;52862;52.504;13.480;2022-10-17T11:11:47;22.90;99.90
51867;DHT22;52862;52.504;13.480;2022-10-17T11:14:18;23.00;99.90
51867;DHT22;52862;52.504;13.480;2022-10-17T11:16:51;23.20;99.90
51867;DHT22;52862;52.504;13.480;2022-10-17T11:19:24;23.30;99.90
51867;DHT22;52862;52.504;13.480;2022-10-17T11:22:01;23.30;99.90
51867;DHT22;52862;52.504;13.480;2022-10-17T11:24:34;23.40;99.90
51867;DHT22;52862;52.504;13.480;2022-10-17T11:27:04;23.40;99.90
51867;DHT22;52862;52.504;13.480;2022-10-17T11:29:33;23.40;99.90
51867;DHT22;52862;52.504;13.480;2022-10-17T11:32:03;23.30;99.90
51867;DHT22;52862;52.504;13.480;2022-10-17T11:34:35;23.60;99.90
51867;DHT22;52862;52.504;13.480;2022-10-17T11:37:07;23.70;99.90
51867;DHT22;52862;52.504;13.480;2022-10-17T11:39:41;23.90;99.90
51867;DHT22;52862;52.504;13.480;2022-10-17T11:42:16;23.90;99.90
51867;DHT22;52862;52.504;13.480;2022-10-17T11:44:44;23.90;99.90
51867;DHT22;52862;52.504;13.480;2022-10-17T11:47:16;23.80;99.90
51867;DHT22;52862;52.504;13.480;2022-10-17T11:49:51;23.60;99.90
51867;DHT22;52862;52.504;13.480;2022-10-17T11:52:27;24.10;99.90
51867;DHT22;52862;52.504;13.480;2022-10-17T11:55:19;24.40;99.90
51867;DHT22;52862;52.504;13.480;2022-10-17T11:57:58;24.20;99.90
51867;DHT22;52862;52.504;13.480;2022-10-17T12:00:33;24.40;99.90
51867;DHT22;52862;52.504;13.480;2022-10-17T12:03:19;24.30;99.90
51867;DHT22;52862;52.504;13.480;2022-10-17T12:05:53;24.40;99.90
51867;DHT22;52862;52.504;13.480;2022-10-17T12:08:29;24.50;99.90
51867;DHT22;52862;52.504;13.480;2022-10-17T12:11:00;24.50;99.90
51867;DHT22;52862;52.504;13.480;2022-10-17T12:13:52;24.70;99.90
51867;DHT22;52862;52.504;13.480;2022-10-17T12:16:46;24.70;99.90
51867;DHT22;52862;52.504;13.480;2022-10-17T12:19:23;24.50;99.90
51867;DHT22;52862;52.504;13.480;2022-10-17T12:21:58;24.80;99.90
51867;DHT22;52862;52.504;13.480;2022-10-17T12:24:39;24.90;99.90
51867;DHT22;52862;52.504;13.480;2022-10-17T12:27:39;25.00;99.90
51867;DHT22;52862;52.504;13.480;2022-10-17T12:30:20;27.30;99.90
51867;DHT22;52862;52.504;13.480;2022-10-17T12:33:01;32.30;99.60
51867;DHT22;52862;52.504;13.480;2022-10-17T12:35:34;35.50;91.60
51867;DHT22;52862;52.504;13.480;2022-10-17T12:38:17;37.80;79.80
51867;DHT22;52862;52.504;13.480;2022-10-17T12:40:49;39.50;70.50
51867;DHT22;52862;52.504;13.480;2022-10-17T12:43:35;39.00;64.70
51867;DHT22;52862;52.504;13.480;2022-10-17T12:46:09;40.70;61.00
51867;DHT22;52862;52.504;13.480;2022-10-17T12:48:58;40.70;59.80
51867;DHT22;52862;52.504;13.480;2022-10-17T12:51:25;39.60;60.00
51867;DHT22;52862;52.504;13.480;2022-10-17T12:54:10;39.60;58.90
51867;DHT22;52862;52.504;13.480;2022-10-17T12:56:42;38.70;58.60
51867;DHT22;52862;52.504;13.480;2022-10-17T12:59:41;38.60;59.20
51867;DHT22;52862;52.504;13.480;2022-10-17T13:02:25;37.70;60.30
51867;DHT22;52862;52.504;13.480;2022-10-17T13:05:12;36.70;61.60
51867;DHT22;52862;52.504;13.480;2022-10-17T13:07:41;36.20;62.70
51867;DHT22;52862;52.504;13.480;2022-10-17T13:10:21;35.30;62.90
51867;DHT22;52862;52.504;13.480;2022-10-17T13:12:49;34.50;65.40
51867;DHT22;52862;52.504;13.480;2022-10-17T13:15:18;33.50;67.30
51867;DHT22;52862;52.504;13.480;2022-10-17T13:17:53;32.80;69.20
51867;DHT22;52862;52.504;13.480;2022-10-17T13:20:22;32.50;70.80
51867;DHT22;52862;52.504;13.480;2022-10-17T13:22:57;32.90;70.80
51867;DHT22;52862;52.504;13.480;2022-10-17T13:25:25;33.00;70.60
51867;DHT22;52862;52.504;13.480;2022-10-17T13:28:05;33.20;70.00
51867;DHT22;52862;52.504;13.480;2022-10-17T13:30:35;32.80;70.00
51867;DHT22;52862;52.504;13.480;2022-10-17T13:33:03;31.70;73.20
51867;DHT22;52862;52.504;13.480;2022-10-17T13:35:41;31.30;74.80
51867;DHT22;52862;52.504;13.480;2022-10-17T13:38:28;30.90;75.90
51867;DHT22;52862;52.504;13.480;2022-10-17T13:40:58;30.30;77.40
51867;DHT22;52862;52.504;13.480;2022-10-17T13:43:42;29.80;79.10
51867;DHT22;52862;52.504;13.480;2022-10-17T13:46:18;31.10;75.30
51867;DHT22;52862;52.504;13.480;2022-10-17T13:49:10;31.60;74.60
51867;DHT22;52862;52.504;13.480;2022-10-17T13:51:41;30.50;76.90
51867;DHT22;52862;52.504;13.480;2022-10-17T13:54:17;31.00;77.00
51867;DHT22;52862;52.504;13.480;2022-10-17T13:56:45;32.30;74.60
51867;DHT22;52862;52.504;13.480;2022-10-17T13:59:21;32.90;72.60
51867;DHT22;52862;52.504;13.480;2022-10-17T14:01:49;31.90;73.90
51867;DHT22;52862;52.504;13.480;2022-10-17T14:04:17;30.90;76.40
51867;DHT22;52862;52.504;13.480;2022-10-17T14:06:47;30.70;76.60
51867;DHT22;52862;52.504;13.480;2022-10-17T14:09:20;31.60;75.20
51867;DHT22;52862;52.504;13.480;2022-10-17T14:11:58;32.40;72.20
51867;DHT22;52862;52.504;13.480;2022-10-17T14:14:26;31.70;73.20
51867;DHT22;52862;52.504;13.480;2022-10-17T14:16:54;29.30;78.80
51867;DHT22;52862;52.504;13.480;2022-10-17T14:19:24;27.70;83.30
51867;DHT22;52862;52.504;13.480;2022-10-17T14:21:53;26.60;87.30
51867;DHT22;52862;52.504;13.480;2022-10-17T14:24:28;26.00;90.00
51867;DHT22;52862;52.504;13.480;2022-10-17T14:26:58;25.40;90.90
51867;DHT22;52862;52.504;13.480;2022-10-17T14:29:27;25.20;91.70
51867;DHT22;52862;52.504;13.480;2022-10-17T14:32:10;25.00;92.20
51867;DHT22;52862;52.504;13.480;2022-10-17T14:34:39;24.80;92.90
51867;DHT22;52862;52.504;13.480;2022-10-17T14:37:10;24.70;93.40
51867;DHT22;52862;52.504;13.480;2022-10-17T14:39:38;24.60;93.70
51867;DHT22;52862;52.504;13.480;2022-10-17T14:42:05;24.50;94.10
51867;DHT22;52862;52.504;13.480;2022-10-17T14:44:33;24.40;94.50
51867;DHT22;52862;52.504;13.480;2022-10-17T14:47:02;24.30;94.60
51867;DHT22;52862;52.504;13.480;2022-10-17T14:49:51;24.40;95.10
51867;DHT22;52862;52.504;13.480;2022-10-17T14:52:29;24.20;95.90
51867;DHT22;52862;52.504;13.480;2022-10-17T14:54:58;23.90;95.80
51867;DHT22;52862;52.504;13.480;2022-10-17T14:57:33;23.90;96.40
51867;DHT22;52862;52.504;13.480;2022-10-17T15:00:07;23.80;96.80
51867;DHT22;52862;52.504;13.480;2022-10-17T15:02:34;23.70;97.30
51867;DHT22;52862;52.504;13.480;2022-10-17T15:05:01;23.60;97.80
51867;DHT22;52862;52.504;13.480;2022-10-17T15:07:27;23.50;98.10
51867;DHT22;52862;52.504;13.480;2022-10-17T15:09:54;23.50;98.60
51867;DHT22;52862;52.504;13.480;2022-10-17T15:12:23;23.40;99.00
51867;DHT22;52862;52.504;13.480;2022-10-17T15:14:51;23.20;99.20
51867;DHT22;52862;52.504;13.480;2022-10-17T15:17:20;23.30;99.70
51867;DHT22;52862;52.504;13.480;2022-10-17T15:19:47;23.30;99.90
51867;DHT22;52862;52.504;13.480;2022-10-17T15:22:15;23.10;99.90
51867;DHT22;52862;52.504;13.480;2022-10-17T15:24:43;23.10;99.90
51867;DHT22;52862;52.504;13.480;2022-10-17T15:27:14;23.00;99.90
51867;DHT22;52862;52.504;13.480;2022-10-17T15:29:42;23.00;99.90
51867;DHT22;52862;52.504;13.480;2022-10-17T15:32:09;22.90;99.90
51867;DHT22;52862;52.504;13.480;2022-10-17T15:34:36;22.90;99.90
51867;DHT22;52862;52.504;13.480;2022-10-17T15:37:03;22.90;99.90
51867;DHT22;52862;52.504;13.480;2022-10-17T15:39:32;22.80;99.90